الصفحة الرئيسية
METAR-TAF:

METAR-TAF

مطار :

جزيرة ويك, الولايات المتحدة

دائرة عرض: 19-17N, خط طول: 166-39E, ارتفاع: 4 متر

مراقبة الطقس الحالي

تاريخ ووقت الإصدار 13 دقيقة قبل الساعة 18:33UTC
ريح 13 عقدة من الشمال الشرقي
درجة الحرارة 26°درجة مئوية
الرطوبة 89%
ضغط 1014 hPa
الرؤية: 14.5 كم
غيوم متفرقة على ارتفاع 2100 قدم

METAR: PWAK 221833Z AUTO 05013KT 9SM SCT021 26/24 A2995 RMK AO2 RAB08E18 SLP148

زمن: 06:46 (18:46 UTC)

توقعات

تاريخ ووقت الإصدار 4ساعات و 46 دقيقة قبل الساعة 14:00UTC
التوقعات صالحة من22 الساعة 14 UTC إلى 23 الساعة 20 UTC
ريح 15 عقدة من الشرق/الشمال الشرقي
الرؤية 10 كم أو أكثر
غيوم متفرقة على ارتفاع 2500 قدم

TAF: PWAK 221400Z 2214/2320 06015KT 9999 SCT025 QNH2989INS TX31/2303Z TN26/2216Z

أرصاد الطقس والتوقعات من أكثر من 4000 مطار (تقارير الطقس للمطار METAR والتنبؤ بالطقس بالمطارTAF).

المحطات المتاحة هي النقط الصفراء والحمراء على الخريطة.

حرك المؤشر فوق النقطة لمعرفة اسم المحطة.

ثم انقر لمعرفة أرصاد وتوقعات الطقس.

لتغيير الخارطة: اضغط على الأزرار الخضراء مع رمز الصليب الأسود للتكبير. على الزر الأخضر مع شرطة للتصغير، أو على الأسهم الخضراء للخرائط المجاورة.


METAR-TAF: